sensor_id;sensor_type;location;lat;lon;timestamp;temperature;humidity
44121;DHT22;29783;52.504;13.478;2022-10-16T00:00:43;13.60;96.50
44121;DHT22;29783;52.504;13.478;2022-10-16T00:03:10;13.60;96.40
44121;DHT22;29783;52.504;13.478;2022-10-16T00:05:41;13.70;96.40
44121;DHT22;29783;52.504;13.478;2022-10-16T00:08:09;13.70;96.30
44121;DHT22;29783;52.504;13.478;2022-10-16T00:10:35;13.70;96.20
44121;DHT22;29783;52.504;13.478;2022-10-16T00:13:00;13.80;96.20
44121;DHT22;29783;52.504;13.478;2022-10-16T00:15:26;13.80;96.10
44121;DHT22;29783;52.504;13.478;2022-10-16T00:17:52;13.80;96.00
44121;DHT22;29783;52.504;13.478;2022-10-16T00:20:18;13.90;95.90
44121;DHT22;29783;52.504;13.478;2022-10-16T00:22:43;14.00;95.80
44121;DHT22;29783;52.504;13.478;2022-10-16T00:25:09;14.00;95.70
44121;DHT22;29783;52.504;13.478;2022-10-16T00:27:35;14.00;95.50
44121;DHT22;29783;52.504;13.478;2022-10-16T00:30:01;14.20;95.40
44121;DHT22;29783;52.504;13.478;2022-10-16T00:32:28;14.20;95.30
44121;DHT22;29783;52.504;13.478;2022-10-16T00:34:54;14.20;95.20
44121;DHT22;29783;52.504;13.478;2022-10-16T00:37:21;14.20;95.20
44121;DHT22;29783;52.504;13.478;2022-10-16T00:39:47;14.30;95.00
44121;DHT22;29783;52.504;13.478;2022-10-16T00:42:17;14.40;94.80
44121;DHT22;29783;52.504;13.478;2022-10-16T00:44:49;14.50;94.50
44121;DHT22;29783;52.504;13.478;2022-10-16T00:47:23;14.50;94.30
44121;DHT22;29783;52.504;13.478;2022-10-16T00:49:51;14.50;94.20
44121;DHT22;29783;52.504;13.478;2022-10-16T00:52:19;14.60;94.00
44121;DHT22;29783;52.504;13.478;2022-10-16T00:54:46;14.60;94.00
44121;DHT22;29783;52.504;13.478;2022-10-16T00:57:12;14.60;93.90
44121;DHT22;29783;52.504;13.478;2022-10-16T00:59:40;14.70;93.80
44121;DHT22;29783;52.504;13.478;2022-10-16T01:02:11;14.60;93.70
44121;DHT22;29783;52.504;13.478;2022-10-16T01:04:43;14.70;93.70
44121;DHT22;29783;52.504;13.478;2022-10-16T01:07:22;14.70;93.80
44121;DHT22;29783;52.504;13.478;2022-10-16T01:13:01;14.80;93.40
44121;DHT22;29783;52.504;13.478;2022-10-16T01:15:36;14.80;93.30
44121;DHT22;29783;52.504;13.478;2022-10-16T01:18:14;14.90;93.00
44121;DHT22;29783;52.504;13.478;2022-10-16T01:28:36;14.80;93.00
44121;DHT22;29783;52.504;13.478;2022-10-16T01:31:05;14.80;93.20
44121;DHT22;29783;52.504;13.478;2022-10-16T01:33:40;14.80;93.30
44121;DHT22;29783;52.504;13.478;2022-10-16T01:36:14;14.80;93.20
44121;DHT22;29783;52.504;13.478;2022-10-16T01:38:42;14.80;93.10
44121;DHT22;29783;52.504;13.478;2022-10-16T01:41:33;14.80;93.10
44121;DHT22;29783;52.504;13.478;2022-10-16T01:44:10;14.70;93.10
44121;DHT22;29783;52.504;13.478;2022-10-16T01:46:39;14.70;93.30
44121;DHT22;29783;52.504;13.478;2022-10-16T01:49:08;14.70;93.40
44121;DHT22;29783;52.504;13.478;2022-10-16T01:51:35;14.60;93.50
44121;DHT22;29783;52.504;13.478;2022-10-16T01:54:04;14.60;93.90
44121;DHT22;29783;52.504;13.478;2022-10-16T01:56:32;14.60;94.00
44121;DHT22;29783;52.504;13.478;2022-10-16T01:59:15;14.60;94.10
44121;DHT22;29783;52.504;13.478;2022-10-16T02:01:45;14.70;94.00
44121;DHT22;29783;52.504;13.478;2022-10-16T02:04:20;14.70;93.90
44121;DHT22;29783;52.504;13.478;2022-10-16T02:06:48;14.70;93.70
44121;DHT22;29783;52.504;13.478;2022-10-16T02:09:13;14.80;93.60
44121;DHT22;29783;52.504;13.478;2022-10-16T02:11:43;14.80;93.50
44121;DHT22;29783;52.504;13.478;2022-10-16T02:14:09;14.90;93.30
44121;DHT22;29783;52.504;13.478;2022-10-16T02:16:43;15.00;93.20
44121;DHT22;29783;52.504;13.478;2022-10-16T02:19:09;15.00;92.80
44121;DHT22;29783;52.504;13.478;2022-10-16T02:21:47;15.10;92.70
44121;DHT22;29783;52.504;13.478;2022-10-16T02:27:53;15.20;92.00
44121;DHT22;29783;52.504;13.478;2022-10-16T02:32:57;15.30;91.80
44121;DHT22;29783;52.504;13.478;2022-10-16T02:35:24;15.30;91.50
44121;DHT22;29783;52.504;13.478;2022-10-16T02:37:52;15.30;91.40
44121;DHT22;29783;52.504;13.478;2022-10-16T02:40:19;15.30;91.20
44121;DHT22;29783;52.504;13.478;2022-10-16T02:42:49;15.40;91.00
44121;DHT22;29783;52.504;13.478;2022-10-16T02:45:15;15.30;91.00
44121;DHT22;29783;52.504;13.478;2022-10-16T02:47:41;15.40;91.00
44121;DHT22;29783;52.504;13.478;2022-10-16T02:50:07;15.40;91.10
44121;DHT22;29783;52.504;13.478;2022-10-16T02:52:33;15.30;91.00
44121;DHT22;29783;52.504;13.478;2022-10-16T02:54:58;15.40;90.90
44121;DHT22;29783;52.504;13.478;2022-10-16T02:57:24;15.50;90.70
44121;DHT22;29783;52.504;13.478;2022-10-16T02:59:50;15.50;90.60
44121;DHT22;29783;52.504;13.478;2022-10-16T03:02:16;15.50;90.30
44121;DHT22;29783;52.504;13.478;2022-10-16T03:04:42;15.50;90.50
44121;DHT22;29783;52.504;13.478;2022-10-16T03:07:08;15.40;90.60
44121;DHT22;29783;52.504;13.478;2022-10-16T03:09:33;15.30;90.70
44121;DHT22;29783;52.504;13.478;2022-10-16T03:11:59;15.30;91.00
44121;DHT22;29783;52.504;13.478;2022-10-16T03:14:25;15.30;91.20
44121;DHT22;29783;52.504;13.478;2022-10-16T03:16:51;15.20;91.40
44121;DHT22;29783;52.504;13.478;2022-10-16T03:19:17;15.20;91.40
44121;DHT22;29783;52.504;13.478;2022-10-16T03:21:43;15.20;91.40
44121;DHT22;29783;52.504;13.478;2022-10-16T03:24:09;15.20;91.40
44121;DHT22;29783;52.504;13.478;2022-10-16T03:26:35;15.20;91.50
44121;DHT22;29783;52.504;13.478;2022-10-16T03:29:01;15.20;91.50
44121;DHT22;29783;52.504;13.478;2022-10-16T03:31:29;15.10;91.70
44121;DHT22;29783;52.504;13.478;2022-10-16T03:33:55;15.00;91.80
44121;DHT22;29783;52.504;13.478;2022-10-16T03:36:21;14.90;92.00
44121;DHT22;29783;52.504;13.478;2022-10-16T03:38:47;14.90;92.30
44121;DHT22;29783;52.504;13.478;2022-10-16T03:41:13;14.80;92.60
44121;DHT22;29783;52.504;13.478;2022-10-16T03:43:39;14.80;92.60
44121;DHT22;29783;52.504;13.478;2022-10-16T03:46:05;14.70;92.70
44121;DHT22;29783;52.504;13.478;2022-10-16T03:48:31;14.70;92.90
44121;DHT22;29783;52.504;13.478;2022-10-16T03:50:57;14.70;92.90
44121;DHT22;29783;52.504;13.478;2022-10-16T03:53:23;14.70;93.10
44121;DHT22;29783;52.504;13.478;2022-10-16T03:55:49;14.70;93.20
44121;DHT22;29783;52.504;13.478;2022-10-16T03:58:15;14.80;93.10
44121;DHT22;29783;52.504;13.478;2022-10-16T04:00:45;14.70;93.00
44121;DHT22;29783;52.504;13.478;2022-10-16T04:03:12;14.70;93.20
44121;DHT22;29783;52.504;13.478;2022-10-16T04:05:38;14.70;93.30
44121;DHT22;29783;52.504;13.478;2022-10-16T04:08:04;14.70;93.20
44121;DHT22;29783;52.504;13.478;2022-10-16T04:10:30;14.70;93.10
44121;DHT22;29783;52.504;13.478;2022-10-16T04:12:56;14.70;93.20
44121;DHT22;29783;52.504;13.478;2022-10-16T04:15:25;14.70;93.20
44121;DHT22;29783;52.504;13.478;2022-10-16T04:17:51;14.70;93.20
44121;DHT22;29783;52.504;13.478;2022-10-16T04:20:17;14.70;93.20
44121;DHT22;29783;52.504;13.478;2022-10-16T04:22:44;14.70;93.30
44121;DHT22;29783;52.504;13.478;2022-10-16T04:25:09;14.70;93.30
44121;DHT22;29783;52.504;13.478;2022-10-16T04:27:36;14.70;93.20
44121;DHT22;29783;52.504;13.478;2022-10-16T04:30:02;14.60;93.30
44121;DHT22;29783;52.504;13.478;2022-10-16T04:32:28;14.50;93.40
44121;DHT22;29783;52.504;13.478;2022-10-16T04:34:54;14.40;93.60
44121;DHT22;29783;52.504;13.478;2022-10-16T04:37:24;14.30;93.80
44121;DHT22;29783;52.504;13.478;2022-10-16T04:39:50;14.30;93.80
44121;DHT22;29783;52.504;13.478;2022-10-16T04:42:16;14.20;94.10
44121;DHT22;29783;52.504;13.478;2022-10-16T04:44:41;14.10;94.20
44121;DHT22;29783;52.504;13.478;2022-10-16T04:47:07;14.10;94.50
44121;DHT22;29783;52.504;13.478;2022-10-16T04:49:33;14.00;94.60
44121;DHT22;29783;52.504;13.478;2022-10-16T04:51:59;13.90;94.70
44121;DHT22;29783;52.504;13.478;2022-10-16T04:54:25;13.80;94.80
44121;DHT22;29783;52.504;13.478;2022-10-16T04:56:50;13.80;95.00
44121;DHT22;29783;52.504;13.478;2022-10-16T04:59:18;13.80;95.00
44121;DHT22;29783;52.504;13.478;2022-10-16T05:01:44;13.70;95.10
44121;DHT22;29783;52.504;13.478;2022-10-16T05:04:10;13.70;95.20
44121;DHT22;29783;52.504;13.478;2022-10-16T05:06:37;13.60;95.30
44121;DHT22;29783;52.504;13.478;2022-10-16T05:09:04;13.50;95.50
44121;DHT22;29783;52.504;13.478;2022-10-16T05:11:31;13.50;95.60
44121;DHT22;29783;52.504;13.478;2022-10-16T05:13:57;13.60;95.80
44121;DHT22;29783;52.504;13.478;2022-10-16T05:16:22;13.60;96.00
44121;DHT22;29783;52.504;13.478;2022-10-16T05:18:48;13.70;96.10
44121;DHT22;29783;52.504;13.478;2022-10-16T05:21:14;13.70;96.00
44121;DHT22;29783;52.504;13.478;2022-10-16T05:23:39;13.60;96.00
44121;DHT22;29783;52.504;13.478;2022-10-16T05:26:05;13.50;96.00
44121;DHT22;29783;52.504;13.478;2022-10-16T05:28:31;13.50;96.00
44121;DHT22;29783;52.504;13.478;2022-10-16T05:30:57;13.50;96.10
44121;DHT22;29783;52.504;13.478;2022-10-16T05:33:25;13.50;96.30
44121;DHT22;29783;52.504;13.478;2022-10-16T05:35:51;13.50;96.40
44121;DHT22;29783;52.504;13.478;2022-10-16T05:38:18;13.60;96.40
44121;DHT22;29783;52.504;13.478;2022-10-16T05:40:50;13.60;96.40
44121;DHT22;29783;52.504;13.478;2022-10-16T05:43:16;13.60;96.40
44121;DHT22;29783;52.504;13.478;2022-10-16T05:45:42;13.50;96.40
44121;DHT22;29783;52.504;13.478;2022-10-16T05:48:08;13.50;96.40
44121;DHT22;29783;52.504;13.478;2022-10-16T05:50:34;13.60;96.50
44121;DHT22;29783;52.504;13.478;2022-10-16T05:53:00;13.60;96.60
44121;DHT22;29783;52.504;13.478;2022-10-16T05:55:25;13.70;96.60
44121;DHT22;29783;52.504;13.478;2022-10-16T05:57:54;13.70;96.60
44121;DHT22;29783;52.504;13.478;2022-10-16T06:00:20;13.70;96.60
44121;DHT22;29783;52.504;13.478;2022-10-16T06:02:46;13.70;96.60
44121;DHT22;29783;52.504;13.478;2022-10-16T06:05:11;13.70;96.60
44121;DHT22;29783;52.504;13.478;2022-10-16T06:07:37;13.70;96.60
44121;DHT22;29783;52.504;13.478;2022-10-16T06:10:04;13.70;96.60
44121;DHT22;29783;52.504;13.478;2022-10-16T06:12:30;13.70;96.60
44121;DHT22;29783;52.504;13.478;2022-10-16T06:14:55;13.80;96.50
44121;DHT22;29783;52.504;13.478;2022-10-16T06:17:21;13.80;96.60
44121;DHT22;29783;52.504;13.478;2022-10-16T06:19:46;14.00;96.70
44121;DHT22;29783;52.504;13.478;2022-10-16T06:22:12;14.00;96.60
44121;DHT22;29783;52.504;13.478;2022-10-16T06:24:38;14.20;96.50
44121;DHT22;29783;52.504;13.478;2022-10-16T06:27:04;14.20;96.40
44121;DHT22;29783;52.504;13.478;2022-10-16T06:29:30;14.20;96.20
44121;DHT22;29783;52.504;13.478;2022-10-16T06:31:56;14.30;95.90
44121;DHT22;29783;52.504;13.478;2022-10-16T06:34:21;14.40;95.60
44121;DHT22;29783;52.504;13.478;2022-10-16T06:36:47;14.40;95.20
44121;DHT22;29783;52.504;13.478;2022-10-16T06:39:13;14.50;94.90
44121;DHT22;29783;52.504;13.478;2022-10-16T06:41:38;14.60;94.60
44121;DHT22;29783;52.504;13.478;2022-10-16T06:44:07;14.60;94.50
44121;DHT22;29783;52.504;13.478;2022-10-16T06:46:34;14.70;94.10
44121;DHT22;29783;52.504;13.478;2022-10-16T06:48:59;14.70;93.90
44121;DHT22;29783;52.504;13.478;2022-10-16T06:51:25;14.70;93.50
44121;DHT22;29783;52.504;13.478;2022-10-16T06:53:52;14.80;93.20
44121;DHT22;29783;52.504;13.478;2022-10-16T06:56:23;14.80;93.10
44121;DHT22;29783;52.504;13.478;2022-10-16T06:58:50;14.80;92.90
44121;DHT22;29783;52.504;13.478;2022-10-16T07:01:17;14.90;92.90
44121;DHT22;29783;52.504;13.478;2022-10-16T07:03:44;14.90;92.60
44121;DHT22;29783;52.504;13.478;2022-10-16T07:06:17;15.00;92.60
44121;DHT22;29783;52.504;13.478;2022-10-16T07:08:55;15.10;92.50
44121;DHT22;29783;52.504;13.478;2022-10-16T07:11:22;15.20;91.70
44121;DHT22;29783;52.504;13.478;2022-10-16T07:13:49;15.50;91.30
44121;DHT22;29783;52.504;13.478;2022-10-16T07:16:18;15.70;90.50
44121;DHT22;29783;52.504;13.478;2022-10-16T07:18:44;16.00;89.90
44121;DHT22;29783;52.504;13.478;2022-10-16T07:21:16;16.20;89.20
44121;DHT22;29783;52.504;13.478;2022-10-16T07:23:43;16.30;88.40
44121;DHT22;29783;52.504;13.478;2022-10-16T07:26:09;16.40;87.90
44121;DHT22;29783;52.504;13.478;2022-10-16T07:28:36;16.40;87.50
44121;DHT22;29783;52.504;13.478;2022-10-16T07:31:06;16.50;87.20
44121;DHT22;29783;52.504;13.478;2022-10-16T07:33:33;16.50;87.20
44121;DHT22;29783;52.504;13.478;2022-10-16T07:35:59;16.70;87.00
44121;DHT22;29783;52.504;13.478;2022-10-16T07:38:25;16.70;87.00
44121;DHT22;29783;52.504;13.478;2022-10-16T07:41:03;16.70;86.60
44121;DHT22;29783;52.504;13.478;2022-10-16T07:43:30;16.70;86.70
44121;DHT22;29783;52.504;13.478;2022-10-16T07:45:56;16.70;86.80
44121;DHT22;29783;52.504;13.478;2022-10-16T07:48:23;16.70;86.70
44121;DHT22;29783;52.504;13.478;2022-10-16T07:50:50;16.80;86.50
44121;DHT22;29783;52.504;13.478;2022-10-16T07:53:15;16.90;86.30
44121;DHT22;29783;52.504;13.478;2022-10-16T07:55:44;16.90;86.20
44121;DHT22;29783;52.504;13.478;2022-10-16T07:58:10;17.00;86.20
44121;DHT22;29783;52.504;13.478;2022-10-16T08:00:39;17.10;85.90
44121;DHT22;29783;52.504;13.478;2022-10-16T08:03:05;17.10;85.70
44121;DHT22;29783;52.504;13.478;2022-10-16T08:05:32;17.20;85.70
44121;DHT22;29783;52.504;13.478;2022-10-16T08:08:01;17.20;85.60
44121;DHT22;29783;52.504;13.478;2022-10-16T08:10:28;17.20;85.30
44121;DHT22;29783;52.504;13.478;2022-10-16T08:12:57;17.40;85.00
44121;DHT22;29783;52.504;13.478;2022-10-16T08:15:24;17.50;84.70
44121;DHT22;29783;52.504;13.478;2022-10-16T08:18:04;17.70;84.00
44121;DHT22;29783;52.504;13.478;2022-10-16T08:20:34;17.70;83.60
44121;DHT22;29783;52.504;13.478;2022-10-16T08:23:00;17.80;83.50
44121;DHT22;29783;52.504;13.478;2022-10-16T08:25:26;17.80;83.20
44121;DHT22;29783;52.504;13.478;2022-10-16T08:27:52;17.80;83.30
44121;DHT22;29783;52.504;13.478;2022-10-16T08:30:19;17.80;83.00
44121;DHT22;29783;52.504;13.478;2022-10-16T08:32:45;17.80;83.10
44121;DHT22;29783;52.504;13.478;2022-10-16T08:35:12;17.90;82.60
44121;DHT22;29783;52.504;13.478;2022-10-16T08:37:38;17.70;83.10
44121;DHT22;29783;52.504;13.478;2022-10-16T08:40:05;17.70;83.10
44121;DHT22;29783;52.504;13.478;2022-10-16T08:45:33;17.70;83.30
44121;DHT22;29783;52.504;13.478;2022-10-16T08:50:40;17.70;83.40
44121;DHT22;29783;52.504;13.478;2022-10-16T08:53:09;17.70;83.50
44121;DHT22;29783;52.504;13.478;2022-10-16T08:55:48;17.70;83.10
44121;DHT22;29783;52.504;13.478;2022-10-16T08:58:21;17.70;83.00
44121;DHT22;29783;52.504;13.478;2022-10-16T09:00:53;17.70;83.20
44121;DHT22;29783;52.504;13.478;2022-10-16T09:12:12;17.70;83.00
44121;DHT22;29783;52.504;13.478;2022-10-16T09:17:40;18.30;81.40
44121;DHT22;29783;52.504;13.478;2022-10-16T09:20:33;18.50;79.70
44121;DHT22;29783;52.504;13.478;2022-10-16T09:25:34;18.40;80.30
44121;DHT22;29783;52.504;13.478;2022-10-16T09:28:00;18.50;79.60
44121;DHT22;29783;52.504;13.478;2022-10-16T09:30:28;18.50;79.60
44121;DHT22;29783;52.504;13.478;2022-10-16T09:32:58;18.60;79.10
44121;DHT22;29783;52.504;13.478;2022-10-16T09:35:44;18.60;79.50
44121;DHT22;29783;52.504;13.478;2022-10-16T09:38:34;18.70;78.60
44121;DHT22;29783;52.504;13.478;2022-10-16T09:41:03;18.70;78.40
44121;DHT22;29783;52.504;13.478;2022-10-16T09:43:53;18.60;79.10
44121;DHT22;29783;52.504;13.478;2022-10-16T09:46:24;18.60;79.40
44121;DHT22;29783;52.504;13.478;2022-10-16T09:48:51;18.50;78.60
44121;DHT22;29783;52.504;13.478;2022-10-16T09:51:25;18.50;78.80
44121;DHT22;29783;52.504;13.478;2022-10-16T09:56:35;18.70;78.80
44121;DHT22;29783;52.504;13.478;2022-10-16T09:59:22;18.60;78.70
44121;DHT22;29783;52.504;13.478;2022-10-16T10:01:55;18.50;78.80
44121;DHT22;29783;52.504;13.478;2022-10-16T10:04:23;18.40;79.00
44121;DHT22;29783;52.504;13.478;2022-10-16T10:06:50;18.40;79.00
44121;DHT22;29783;52.504;13.478;2022-10-16T10:09:47;18.60;78.60
44121;DHT22;29783;52.504;13.478;2022-10-16T10:12:27;18.80;78.20
44121;DHT22;29783;52.504;13.478;2022-10-16T10:14:55;19.20;76.50
44121;DHT22;29783;52.504;13.478;2022-10-16T10:17:23;19.30;75.90
44121;DHT22;29783;52.504;13.478;2022-10-16T10:19:52;19.50;75.00
44121;DHT22;29783;52.504;13.478;2022-10-16T10:28:10;19.70;73.40
44121;DHT22;29783;52.504;13.478;2022-10-16T10:36:12;19.50;74.30
44121;DHT22;29783;52.504;13.478;2022-10-16T10:41:48;19.70;73.30
44121;DHT22;29783;52.504;13.478;2022-10-16T10:44:35;19.80;73.20
44121;DHT22;29783;52.504;13.478;2022-10-16T10:47:23;19.70;72.60
44121;DHT22;29783;52.504;13.478;2022-10-16T10:50:12;19.80;71.80
44121;DHT22;29783;52.504;13.478;2022-10-16T11:01:04;20.20;69.00
44121;DHT22;29783;52.504;13.478;2022-10-16T11:06:16;20.20;69.60
44121;DHT22;29783;52.504;13.478;2022-10-16T11:09:20;20.60;68.20
44121;DHT22;29783;52.504;13.478;2022-10-16T11:17:35;21.20;64.10
44121;DHT22;29783;52.504;13.478;2022-10-16T11:20:19;21.20;64.10
44121;DHT22;29783;52.504;13.478;2022-10-16T11:22:59;21.20;63.90
44121;DHT22;29783;52.504;13.478;2022-10-16T11:25:31;21.20;64.00
44121;DHT22;29783;52.504;13.478;2022-10-16T11:28:25;20.90;64.10
44121;DHT22;29783;52.504;13.478;2022-10-16T11:31:03;20.70;64.60
44121;DHT22;29783;52.504;13.478;2022-10-16T11:33:55;20.60;65.10
44121;DHT22;29783;52.504;13.478;2022-10-16T11:46:58;20.30;64.50
44121;DHT22;29783;52.504;13.478;2022-10-16T11:49:26;20.30;64.20
44121;DHT22;29783;52.504;13.478;2022-10-16T11:52:20;20.20;63.90
44121;DHT22;29783;52.504;13.478;2022-10-16T11:54:56;20.30;63.20
44121;DHT22;29783;52.504;13.478;2022-10-16T11:57:29;20.20;63.50
44121;DHT22;29783;52.504;13.478;2022-10-16T12:03:15;20.20;63.30
44121;DHT22;29783;52.504;13.478;2022-10-16T12:08:26;20.20;62.20
44121;DHT22;29783;52.504;13.478;2022-10-16T12:10:52;20.20;61.70
44121;DHT22;29783;52.504;13.478;2022-10-16T12:13:37;20.20;60.70
44121;DHT22;29783;52.504;13.478;2022-10-16T12:18:43;20.20;61.30
44121;DHT22;29783;52.504;13.478;2022-10-16T12:21:10;20.30;60.20
44121;DHT22;29783;52.504;13.478;2022-10-16T12:23:47;20.80;58.80
44121;DHT22;29783;52.504;13.478;2022-10-16T12:26:14;21.60;56.40
44121;DHT22;29783;52.504;13.478;2022-10-16T12:28:39;22.60;53.60
44121;DHT22;29783;52.504;13.478;2022-10-16T12:31:08;23.20;51.30
44121;DHT22;29783;52.504;13.478;2022-10-16T12:33:40;24.00;49.40
44121;DHT22;29783;52.504;13.478;2022-10-16T12:36:26;24.20;48.50
44121;DHT22;29783;52.504;13.478;2022-10-16T12:38:53;24.50;48.00
44121;DHT22;29783;52.504;13.478;2022-10-16T12:41:35;25.00;46.80
44121;DHT22;29783;52.504;13.478;2022-10-16T12:44:20;25.30;46.30
44121;DHT22;29783;52.504;13.478;2022-10-16T12:46:47;25.70;45.60
44121;DHT22;29783;52.504;13.478;2022-10-16T12:51:39;27.30;41.30
44121;DHT22;29783;52.504;13.478;2022-10-16T12:54:30;26.00;43.20
44121;DHT22;29783;52.504;13.478;2022-10-16T13:03:28;27.20;40.20
44121;DHT22;29783;52.504;13.478;2022-10-16T13:06:37;28.20;38.20
44121;DHT22;29783;52.504;13.478;2022-10-16T13:09:17;28.10;38.10
44121;DHT22;29783;52.504;13.478;2022-10-16T13:17:16;28.90;36.70
44121;DHT22;29783;52.504;13.478;2022-10-16T13:22:35;29.30;36.10
44121;DHT22;29783;52.504;13.478;2022-10-16T13:25:24;29.30;36.10
44121;DHT22;29783;52.504;13.478;2022-10-16T13:28:06;30.20;34.70
44121;DHT22;29783;52.504;13.478;2022-10-16T13:30:51;30.50;34.30
44121;DHT22;29783;52.504;13.478;2022-10-16T13:33:26;29.20;36.10
44121;DHT22;29783;52.504;13.478;2022-10-16T13:35:56;29.20;36.10
44121;DHT22;29783;52.504;13.478;2022-10-16T13:38:24;27.90;38.20
44121;DHT22;29783;52.504;13.478;2022-10-16T13:41:02;26.70;40.90
44121;DHT22;29783;52.504;13.478;2022-10-16T13:46:05;27.30;39.80
44121;DHT22;29783;52.504;13.478;2022-10-16T13:48:33;27.70;39.30
44121;DHT22;29783;52.504;13.478;2022-10-16T13:51:05;28.20;38.00
44121;DHT22;29783;52.504;13.478;2022-10-16T13:53:34;28.30;38.10
44121;DHT22;29783;52.504;13.478;2022-10-16T13:56:03;28.50;37.30
44121;DHT22;29783;52.504;13.478;2022-10-16T13:58:29;29.20;36.80
44121;DHT22;29783;52.504;13.478;2022-10-16T14:00:58;29.20;36.50
44121;DHT22;29783;52.504;13.478;2022-10-16T14:03:24;29.40;36.40
44121;DHT22;29783;52.504;13.478;2022-10-16T14:05:57;28.70;37.50
44121;DHT22;29783;52.504;13.478;2022-10-16T14:08:25;27.50;39.40
44121;DHT22;29783;52.504;13.478;2022-10-16T14:10:55;26.70;41.00
44121;DHT22;29783;52.504;13.478;2022-10-16T14:13:38;27.10;40.50
44121;DHT22;29783;52.504;13.478;2022-10-16T14:16:15;27.40;39.50
44121;DHT22;29783;52.504;13.478;2022-10-16T14:18:41;26.50;41.70
44121;DHT22;29783;52.504;13.478;2022-10-16T14:21:14;27.60;39.90
44121;DHT22;29783;52.504;13.478;2022-10-16T14:23:42;28.40;38.40
44121;DHT22;29783;52.504;13.478;2022-10-16T14:26:12;29.50;36.80
44121;DHT22;29783;52.504;13.478;2022-10-16T14:28:41;29.90;35.60
44121;DHT22;29783;52.504;13.478;2022-10-16T14:31:32;29.70;36.00
44121;DHT22;29783;52.504;13.478;2022-10-16T14:33:59;29.90;35.70
44121;DHT22;29783;52.504;13.478;2022-10-16T14:36:26;30.60;34.70
44121;DHT22;29783;52.504;13.478;2022-10-16T14:39:02;30.10;35.10
44121;DHT22;29783;52.504;13.478;2022-10-16T14:41:31;29.80;35.90
44121;DHT22;29783;52.504;13.478;2022-10-16T14:44:10;30.20;35.30
44121;DHT22;29783;52.504;13.478;2022-10-16T14:46:48;30.10;35.30
44121;DHT22;29783;52.504;13.478;2022-10-16T14:49:17;29.20;36.40
44121;DHT22;29783;52.504;13.478;2022-10-16T14:51:45;28.70;36.90
44121;DHT22;29783;52.504;13.478;2022-10-16T14:54:18;28.40;37.80
44121;DHT22;29783;52.504;13.478;2022-10-16T14:56:51;28.70;37.20
44121;DHT22;29783;52.504;13.478;2022-10-16T14:59:36;28.90;37.00
44121;DHT22;29783;52.504;13.478;2022-10-16T15:02:19;29.60;36.20
44121;DHT22;29783;52.504;13.478;2022-10-16T15:04:46;29.90;35.20
44121;DHT22;29783;52.504;13.478;2022-10-16T15:07:12;29.20;36.00
44121;DHT22;29783;52.504;13.478;2022-10-16T15:09:46;28.60;37.30
44121;DHT22;29783;52.504;13.478;2022-10-16T15:12:12;28.20;37.50
44121;DHT22;29783;52.504;13.478;2022-10-16T15:14:38;28.70;37.10
44121;DHT22;29783;52.504;13.478;2022-10-16T15:17:04;28.90;36.60
44121;DHT22;29783;52.504;13.478;2022-10-16T15:19:29;28.40;37.10
44121;DHT22;29783;52.504;13.478;2022-10-16T15:21:55;27.80;37.90
44121;DHT22;29783;52.504;13.478;2022-10-16T15:24:21;27.50;38.40
44121;DHT22;29783;52.504;13.478;2022-10-16T15:26:47;26.20;40.80
44121;DHT22;29783;52.504;13.478;2022-10-16T15:29:13;25.20;42.70
44121;DHT22;29783;52.504;13.478;2022-10-16T15:31:39;24.30;45.00
44121;DHT22;29783;52.504;13.478;2022-10-16T15:34:09;23.30;47.40
44121;DHT22;29783;52.504;13.478;2022-10-16T15:36:36;22.40;49.70
44121;DHT22;29783;52.504;13.478;2022-10-16T15:39:04;21.90;51.30
44121;DHT22;29783;52.504;13.478;2022-10-16T15:41:29;21.50;52.40
44121;DHT22;29783;52.504;13.478;2022-10-16T15:43:55;21.20;52.90
44121;DHT22;29783;52.504;13.478;2022-10-16T15:46:23;20.80;53.70
44121;DHT22;29783;52.504;13.478;2022-10-16T15:48:51;20.50;54.80
44121;DHT22;29783;52.504;13.478;2022-10-16T15:51:21;20.20;55.70
44121;DHT22;29783;52.504;13.478;2022-10-16T15:53:46;20.00;56.50
44121;DHT22;29783;52.504;13.478;2022-10-16T15:56:13;19.80;57.20
44121;DHT22;29783;52.504;13.478;2022-10-16T15:58:39;19.70;57.80
44121;DHT22;29783;52.504;13.478;2022-10-16T16:01:05;19.50;58.10
44121;DHT22;29783;52.504;13.478;2022-10-16T16:03:31;19.30;58.60
44121;DHT22;29783;52.504;13.478;2022-10-16T16:05:57;19.20;59.10
44121;DHT22;29783;52.504;13.478;2022-10-16T16:08:23;19.00;59.40
44121;DHT22;29783;52.504;13.478;2022-10-16T16:11:05;18.80;60.20
44121;DHT22;29783;52.504;13.478;2022-10-16T16:13:32;18.70;60.60
44121;DHT22;29783;52.504;13.478;2022-10-16T16:15:57;18.50;61.00
44121;DHT22;29783;52.504;13.478;2022-10-16T16:18:23;18.30;61.70
44121;DHT22;29783;52.504;13.478;2022-10-16T16:20:52;18.20;62.30
44121;DHT22;29783;52.504;13.478;2022-10-16T16:23:18;18.00;62.90
44121;DHT22;29783;52.504;13.478;2022-10-16T16:25:45;17.80;63.70
44121;DHT22;29783;52.504;13.478;2022-10-16T16:28:10;17.70;63.90
44121;DHT22;29783;52.504;13.478;2022-10-16T16:30:40;17.70;63.90
44121;DHT22;29783;52.504;13.478;2022-10-16T16:33:05;17.70;64.10
44121;DHT22;29783;52.504;13.478;2022-10-16T16:35:31;17.50;64.60
44121;DHT22;29783;52.504;13.478;2022-10-16T16:37:57;17.40;65.10
44121;DHT22;29783;52.504;13.478;2022-10-16T16:40:23;17.20;65.50
44121;DHT22;29783;52.504;13.478;2022-10-16T16:42:49;17.20;65.90
44121;DHT22;29783;52.504;13.478;2022-10-16T16:45:14;17.20;66.10
44121;DHT22;29783;52.504;13.478;2022-10-16T16:47:40;17.10;66.10
44121;DHT22;29783;52.504;13.478;2022-10-16T16:50:06;17.00;66.60
44121;DHT22;29783;52.504;13.478;2022-10-16T16:52:33;16.90;66.90
44121;DHT22;29783;52.504;13.478;2022-10-16T16:54:59;16.80;67.40
44121;DHT22;29783;52.504;13.478;2022-10-16T16:57:26;16.70;67.50
44121;DHT22;29783;52.504;13.478;2022-10-16T16:59:52;16.70;67.90
44121;DHT22;29783;52.504;13.478;2022-10-16T17:02:17;16.50;68.40
44121;DHT22;29783;52.504;13.478;2022-10-16T17:04:43;16.40;68.70
44121;DHT22;29783;52.504;13.478;2022-10-16T17:07:09;16.30;69.00
44121;DHT22;29783;52.504;13.478;2022-10-16T17:09:35;16.30;69.50
44121;DHT22;29783;52.504;13.478;2022-10-16T17:12:00;16.20;69.60
44121;DHT22;29783;52.504;13.478;2022-10-16T17:14:26;16.10;70.10
44121;DHT22;29783;52.504;13.478;2022-10-16T17:16:52;15.90;71.00
44121;DHT22;29783;52.504;13.478;2022-10-16T17:19:19;15.70;71.90